createdAt,value
2024-01-24T06:05:10.383Z,4.76
2024-01-24T06:15:13.138Z,5.14
2024-01-24T06:25:15.758Z,5.26
2024-01-24T06:35:18.468Z,5.58
2024-01-24T06:45:21.627Z,5.64
2024-01-24T06:55:25.492Z,5.68
2024-01-24T07:05:28.688Z,5.96
2024-01-24T07:15:31.175Z,6.05
2024-01-24T07:25:33.546Z,6.08
2024-01-24T07:35:35.938Z,5.86
2024-01-24T07:45:38.413Z,5.97
2024-01-24T07:55:51.403Z,6.18
2024-01-24T08:05:58.819Z,6.29
2024-01-24T08:16:01.450Z,6.54
2024-01-24T08:26:04.021Z,6.81
2024-01-24T08:36:06.535Z,7.07
2024-01-24T08:46:08.980Z,7.18
2024-01-24T08:56:11.449Z,7.14
2024-01-24T09:06:14.084Z,7.19
2024-01-24T09:16:17.204Z,7.54
2024-01-24T09:26:19.805Z,7.53
2024-01-24T09:36:24.543Z,7.52
2024-01-24T09:46:29.809Z,7.45
2024-01-24T09:56:34.494Z,7.52
2024-01-24T10:06:41.238Z,7.57
2024-01-24T10:16:44.132Z,7.76
2024-01-24T10:26:46.766Z,8.27
2024-01-24T10:36:49.802Z,8.70
2024-01-24T10:46:52.832Z,8.97
2024-01-24T10:56:56.330Z,8.89
2024-01-24T11:07:03.993Z,9.24
2024-01-24T11:17:07.525Z,9.09
2024-01-24T11:27:26.774Z,9.35
2024-01-24T11:37:34.639Z,9.36
2024-01-24T11:47:37.068Z,9.40
2024-01-24T11:57:39.733Z,9.62
2024-01-24T12:07:42.146Z,7.87
2024-01-24T12:17:45.016Z,7.18
2024-01-24T12:27:47.681Z,7.41
2024-01-24T12:37:50.275Z,7.61
2024-01-24T12:47:54.068Z,7.67
2024-01-24T12:57:56.477Z,7.58
2024-01-24T13:07:59.141Z,7.66
2024-01-24T13:18:02.431Z,7.83
2024-01-24T13:28:05.580Z,7.72
2024-01-24T13:38:08.135Z,7.83
2024-01-24T13:48:10.835Z,7.75
2024-01-24T13:58:13.758Z,7.88
2024-01-24T14:17:27.871Z,7.59
2024-01-24T14:27:30.319Z,7.58
2024-01-24T14:37:33.680Z,7.63
2024-01-24T14:47:36.276Z,7.53
2024-01-24T14:57:39.394Z,7.58
2024-01-24T15:07:42.049Z,7.38
2024-01-24T15:17:45.135Z,7.40
2024-01-24T15:27:47.777Z,7.39
2024-01-24T15:37:50.128Z,7.36
2024-01-24T15:47:53.719Z,7.30
2024-01-24T15:57:56.262Z,7.31
2024-01-24T16:07:59.693Z,7.14
2024-01-24T16:18:02.215Z,7.17
2024-01-24T16:28:04.986Z,7.12
2024-01-24T16:38:07.389Z,7.15
2024-01-24T16:48:10.234Z,7.06
2024-01-24T16:58:14.075Z,7.07
2024-01-24T17:08:16.398Z,7.07
2024-01-24T17:18:20.394Z,7.07
2024-01-24T17:28:22.950Z,7.10
2024-01-24T17:38:25.332Z,7.03
2024-01-24T17:48:27.939Z,7.11
2024-01-24T17:58:32.378Z,7.12
2024-01-24T18:08:35.154Z,7.11
2024-01-24T18:18:38.407Z,7.10
2024-01-24T18:28:41.043Z,7.17
2024-01-24T18:38:44.591Z,6.96
2024-01-24T18:48:47.286Z,6.78
2024-01-24T18:58:49.888Z,6.80
2024-01-24T19:08:52.422Z,6.96
2024-01-24T19:18:54.981Z,6.89
2024-01-24T19:28:57.444Z,6.80
2024-01-24T19:39:00.021Z,6.62
2024-01-24T19:49:02.647Z,6.47
2024-01-24T19:59:05.251Z,6.48
2024-01-24T20:09:08.042Z,6.53
2024-01-24T20:19:10.562Z,6.66
2024-01-24T20:29:13.485Z,6.56
2024-01-24T20:39:18.762Z,6.62
2024-01-24T20:49:21.289Z,6.55
2024-01-24T20:59:25.580Z,6.63
2024-01-24T21:10:11.011Z,6.55
2024-01-24T21:20:13.827Z,6.37
2024-01-24T21:30:16.456Z,6.47
2024-01-24T21:40:19.012Z,6.41
2024-01-24T21:50:21.603Z,6.39
2024-01-24T22:00:24.056Z,6.37
2024-01-24T22:10:26.674Z,6.11
2024-01-24T22:20:29.159Z,6.06
2024-01-24T22:30:31.750Z,6.02
2024-01-24T22:40:34.367Z,6.07
2024-01-24T22:50:36.930Z,6.06
2024-01-24T23:00:39.509Z,6.13
2024-01-24T23:10:41.946Z,5.96
